.
WxDataArchive / Data Records for 2010-10-06
2010-10-05 October 2010 2010-10-07

Data Records for Wednesday, 06 October 2010

Time	Temp	Chill	HIndex	Humid	Dewpt	 Wind 	HiWind	WindDir	Rain 	Barom 
-----	----	-----	------	-----	-----	------	------	-------	-----	----- 
00:00	50.1	50.1	50.1	64	38.4	0	1	292	0.00	30.221 
00:05	49.9	49.9	49.9	65	38.6	0	1	---	0.00	30.221 
00:10	49.8	49.8	49.8	65	38.5	0	0	---	0.00	30.221 
00:15	49.5	49.5	49.5	65	38.2	0	0	---	0.00	30.217 
00:20	49.4	49.4	49.4	66	38.5	0	0	---	0.00	30.217 
00:25	49.2	49.2	49.2	67	38.7	0	0	---	0.00	30.217 
00:30	48.9	48.9	48.9	67	38.4	0	0	---	0.00	30.217 
00:35	48.8	48.8	48.8	68	38.7	0	0	---	0.00	30.217 
00:40	48.8	48.8	48.8	68	38.7	0	0	---	0.00	30.217 
00:45	48.6	48.6	48.6	69	38.9	0	1	292	0.00	30.206 
00:50	48.6	48.6	48.6	69	38.9	0	1	292	0.00	30.206 
00:55	48.6	48.6	48.6	69	38.9	0	0	---	0.00	30.206 
01:00	48.6	48.6	48.6	70	39.3	0	0	---	0.00	30.205 
01:05	48.5	48.5	48.5	70	39.2	0	1	292	0.00	30.205 
01:10	48.5	48.5	48.5	70	39.2	0	0	---	0.00	30.205 
01:15	48.5	48.5	48.5	70	39.2	0	1	292	0.00	30.201 
01:20	48.5	48.5	48.5	71	39.5	0	0	---	0.00	30.201 
01:25	48.5	48.5	48.5	71	39.5	0	1	292	0.00	30.201 
01:30	48.3	48.3	48.3	72	39.7	0	1	292	0.00	30.198 
01:35	48.3	48.3	48.3	72	39.7	0	1	292	0.00	30.198 
01:40	48.3	48.3	48.3	72	39.7	0	1	292	0.00	30.198 
01:45	48.3	48.3	48.3	73	40.1	0	1	292	0.00	30.192 
01:50	48.3	48.3	48.3	73	40.1	0	1	292	0.00	30.192 
01:55	48.2	48.2	48.2	73	40.0	0	0	---	0.00	30.192 
02:00	48.2	48.2	48.2	73	40.0	0	1	292	0.00	30.194 
02:05	48.0	48.0	48.0	74	40.1	0	1	292	0.00	30.194 
02:10	48.0	48.0	48.0	74	40.1	0	1	292	0.00	30.194 
02:15	48.0	48.0	48.0	74	40.1	0	1	292	0.00	30.190 
02:20	48.0	48.0	48.0	75	40.5	0	2	292	0.00	30.190 
02:25	48.0	48.0	48.0	75	40.5	0	1	292	0.00	30.190 
02:30	48.2	48.2	48.2	75	40.7	0	1	292	0.00	30.185 
02:35	48.2	48.2	48.2	75	40.7	0	1	292	0.00	30.185 
02:40	48.2	48.2	48.2	75	40.7	0	3	292	0.00	30.185 
02:45	48.2	48.2	48.2	75	40.7	0	2	292	0.00	30.182 
02:50	48.2	48.2	48.2	75	40.7	0	1	292	0.00	30.182 
02:55	48.3	48.3	48.3	76	41.1	1	2	292	0.00	30.182 
03:00	48.3	48.3	48.3	76	41.1	0	2	292	0.00	30.178 
03:05	48.2	48.2	48.2	76	41.0	0	2	292	0.00	30.178 
03:10	48.2	48.2	48.2	76	41.0	0	1	292	0.00	30.178 
03:15	48.0	48.0	48.0	76	40.8	0	2	292	0.00	30.172 
03:20	47.9	47.9	47.9	76	40.7	0	1	292	0.00	30.172 
03:25	47.7	47.7	47.7	77	40.8	0	1	292	0.00	30.172 
03:30	47.6	47.6	47.6	77	40.8	0	1	292	0.00	30.169 
03:35	47.6	47.6	47.6	77	40.8	0	1	292	0.00	30.169 
03:40	47.6	47.6	47.6	77	40.8	0	1	292	0.00	30.169 
03:45	47.6	47.6	47.6	77	40.8	0	2	292	0.00	30.158 
03:50	47.6	47.6	47.6	77	40.8	0	1	292	0.00	30.158 
03:55	47.6	47.6	47.6	77	40.8	0	1	292	0.00	30.158 
04:00	47.4	47.4	47.4	77	40.6	0	2	292	0.00	30.154 
04:05	47.4	47.4	47.4	78	40.9	0	1	292	0.00	30.154 
04:10	47.3	47.3	47.3	78	40.8	0	1	292	0.00	30.154 
04:15	47.1	47.1	47.1	78	40.6	0	1	292	0.00	30.153 
04:20	47.0	47.0	47.0	78	40.5	0	0	---	0.00	30.153 
04:25	46.8	46.8	46.8	79	40.6	0	0	---	0.00	30.153 
04:30	46.7	46.7	46.7	79	40.5	0	0	---	0.00	30.153 
04:35	46.4	46.4	46.4	80	40.6	0	0	---	0.00	30.153 
04:40	46.2	46.2	46.2	80	40.4	0	0	---	0.00	30.153 
04:45	46.1	46.1	46.1	81	40.6	0	0	---	0.00	30.154 
04:50	46.1	46.1	46.1	81	40.6	0	0	---	0.00	30.154 
04:55	46.0	46.0	46.0	81	40.5	0	0	---	0.00	30.154 
05:00	45.8	45.8	45.8	82	40.6	0	0	---	0.00	30.152 
05:05	45.8	45.8	45.8	82	40.6	0	0	---	0.00	30.152 
05:10	45.8	45.8	45.8	82	40.6	0	0	---	0.00	30.152 
05:15	45.8	45.8	45.8	82	40.6	0	0	---	0.00	30.150 
05:20	45.8	45.8	45.8	83	40.9	0	0	---	0.00	30.150 
05:25	45.8	45.8	45.8	83	40.9	0	1	292	0.00	30.150 
05:30	45.8	45.8	45.8	83	40.9	0	1	292	0.00	30.146 
05:35	45.8	45.8	45.8	83	40.9	0	0	---	0.00	30.146 
05:40	45.8	45.8	45.8	83	40.9	0	1	292	0.00	30.146 
05:45	45.8	45.8	45.8	83	40.9	0	1	292	0.00	30.144 
05:50	45.8	45.8	45.8	83	40.9	0	1	292	0.00	30.144 
05:55	45.8	45.8	45.8	83	40.9	0	1	292	0.00	30.144 
06:00	45.7	45.7	45.7	82	40.5	0	1	292	0.00	30.145 
06:05	45.8	45.8	45.8	82	40.6	0	1	292	0.00	30.145 
06:10	45.8	45.8	45.8	82	40.6	0	1	292	0.00	30.145 
06:15	45.7	45.7	45.7	82	40.5	0	1	292	0.00	30.144 
06:20	45.7	45.7	45.7	82	40.5	0	1	292	0.00	30.144 
06:25	45.5	45.5	45.5	82	40.3	0	1	292	0.00	30.144 
06:30	45.5	45.5	45.5	82	40.3	0	1	292	0.00	30.142 
06:35	45.4	45.4	45.4	82	40.2	0	1	292	0.00	30.142 
06:40	45.4	45.4	45.4	82	40.2	0	1	292	0.00	30.142 
06:45	45.4	45.4	45.4	82	40.2	0	1	292	0.00	30.146 
06:50	45.4	45.4	45.4	82	40.2	0	1	292	0.00	30.146 
06:55	45.2	45.2	45.2	82	40.0	0	1	292	0.00	30.146 
07:00	45.2	45.2	45.2	83	40.3	0	1	292	0.00	30.148 
07:05	45.1	45.1	45.1	82	39.9	0	0	---	0.00	30.148 
07:10	44.9	44.9	44.9	83	40.1	0	0	---	0.00	30.148 
07:15	44.9	44.9	44.9	83	40.1	0	1	292	0.00	30.153 
07:20	44.9	44.9	44.9	83	40.1	0	1	292	0.00	30.153 
07:25	44.9	44.9	44.9	84	40.4	0	1	292	0.00	30.153 
07:30	44.9	44.9	44.9	84	40.4	0	0	---	0.00	30.155 
07:35	44.8	44.8	44.8	84	40.3	0	0	---	0.00	30.155 
07:40	44.6	44.6	44.6	84	40.1	0	0	---	0.00	30.155 
07:45	44.3	44.3	44.3	84	39.8	0	0	---	0.00	30.157 
07:50	44.1	44.1	44.1	84	39.6	0	0	---	0.00	30.157 
07:55	44.1	44.1	44.1	85	39.9	0	0	---	0.00	30.157 
08:00	43.9	43.9	43.9	85	39.7	0	0	---	0.00	30.157 
08:05	43.6	43.6	43.6	85	39.4	0	0	---	0.00	30.157 
08:10	43.5	43.5	43.5	85	39.3	0	0	---	0.00	30.157 
08:15	43.5	43.5	43.5	86	39.6	0	0	---	0.00	30.158 
08:20	43.3	43.3	43.3	86	39.4	0	0	---	0.00	30.158 
08:25	43.5	43.5	43.5	86	39.6	0	0	---	0.00	30.158 
08:30	43.8	43.8	43.8	87	40.2	0	0	---	0.00	30.155 
08:35	44.2	44.2	44.2	88	40.9	0	0	---	0.00	30.155 
08:40	44.8	44.8	44.8	87	41.2	0	0	---	0.00	30.155 
08:45	45.4	45.4	45.4	86	41.5	0	1	292	0.00	30.148 
08:50	46.1	46.1	46.1	85	41.8	0	1	292	0.00	30.148 
08:55	46.8	46.8	46.8	83	41.9	0	1	292	0.00	30.148 
09:00	47.6	47.6	47.6	80	41.7	0	2	292	0.00	30.152 
09:05	48.2	48.2	48.2	78	41.7	0	1	292	0.00	30.152 
09:10	48.8	48.8	48.8	76	41.6	0	3	292	0.00	30.152 
09:15	49.4	49.4	49.4	74	41.5	0	2	292	0.00	30.151 
09:20	50.1	50.1	50.1	72	41.4	0	2	292	0.00	30.151 
09:25	50.5	50.5	50.5	70	41.1	0	2	292	0.00	30.151 
09:30	51.1	51.1	51.1	69	41.3	0	2	292	0.00	30.145 
09:35	51.7	51.7	51.7	65	40.3	0	1	292	0.00	30.145 
09:40	52.3	52.3	52.3	65	40.9	0	1	292	0.00	30.145 
09:45	52.9	52.9	52.9	64	41.1	0	1	292	0.00	30.142 
09:50	53.5	53.5	53.5	61	40.4	1	3	292	0.00	30.142 
09:55	54.1	54.1	54.1	61	41.0	0	2	292	0.00	30.142 
10:00	54.5	54.5	54.5	61	41.3	0	1	292	0.00	30.141 
10:05	55.1	55.1	55.1	58	40.6	1	3	292	0.00	30.141 
10:10	55.7	55.7	55.7	56	40.2	1	4	292	0.00	30.141 
10:15	56.2	56.2	56.2	54	39.8	1	4	292	0.00	30.140 
10:20	56.7	56.7	56.7	55	40.7	0	2	292	0.00	30.140 
10:25	57.2	57.2	57.2	53	40.2	1	4	292	0.00	30.140 
10:30	57.6	57.6	57.6	51	39.6	1	3	292	0.00	30.130 
10:35	58.3	58.3	58.3	51	40.3	1	3	292	0.00	30.130 
10:40	58.7	58.7	58.7	49	39.6	1	2	292	0.00	30.130 
10:45	59.2	59.2	59.2	50	40.6	1	3	292	0.00	30.127 
10:50	59.5	59.5	59.5	49	40.3	1	4	292	0.00	30.127 
10:55	59.8	59.8	59.8	47	39.5	1	2	270	0.00	30.127 
11:00	60.1	60.1	60.1	46	39.2	1	3	315	0.00	30.125 
11:05	60.4	60.4	60.4	46	39.5	2	5	315	0.00	30.125 
11:10	61.0	61.0	61.0	47	40.6	1	3	292	0.00	30.125 
11:15	61.2	61.2	61.2	47	40.8	1	3	292	0.00	30.123 
11:20	60.9	60.9	60.9	47	40.5	2	4	315	0.00	30.123 
11:25	60.9	60.9	60.9	48	41.1	2	4	292	0.00	30.123 
11:30	61.5	61.5	61.5	46	40.5	2	6	270	0.00	30.120 
11:35	61.6	61.6	61.6	45	40.0	2	4	270	0.00	30.120 
11:40	61.8	61.8	61.8	47	41.4	2	5	270	0.00	30.120 
11:45	61.8	61.8	61.8	47	41.4	1	4	270	0.00	30.111 
11:50	62.4	62.4	62.4	46	41.3	2	5	270	0.00	30.111 
11:55	62.9	62.9	62.9	47	42.4	1	4	270	0.00	30.111 
12:00	62.9	62.9	62.9	46	41.8	1	4	270	0.00	30.106 
12:05	62.6	62.6	62.6	45	41.0	1	5	270	0.00	30.106 
12:10	62.4	62.4	62.4	45	40.8	1	2	0	0.00	30.106 
12:15	62.1	62.1	62.1	47	41.6	2	4	292	0.00	30.105 
12:20	62.4	62.4	62.4	49	43.0	2	4	292	0.00	30.105 
12:25	63.4	63.4	63.4	46	42.3	1	4	292	0.00	30.105 
12:30	64.0	64.0	64.0	45	42.2	2	5	270	0.00	30.094 
12:35	64.3	64.3	64.3	44	41.9	2	6	292	0.00	30.094 
12:40	64.3	64.3	64.3	46	43.1	1	3	315	0.00	30.094 
12:45	65.2	65.2	65.2	46	43.9	2	6	270	0.00	30.084 
12:50	65.6	65.6	65.6	44	43.1	2	6	292	0.00	30.084 
12:55	66.0	66.0	66.0	44	43.5	2	7	292	0.00	30.084 
13:00	66.1	66.1	66.1	43	42.9	2	5	338	0.00	30.081 
13:05	66.4	66.4	66.4	43	43.2	1	6	338	0.00	30.081 
13:10	66.9	66.9	66.9	43	43.7	1	5	225	0.00	30.081 
13:15	66.6	66.6	66.6	43	43.4	2	9	292	0.00	30.072 
13:20	66.8	66.8	66.8	44	44.2	2	5	270	0.00	30.072 
13:25	67.1	67.1	67.1	45	45.0	1	3	270	0.00	30.072 
13:30	67.3	67.3	67.3	43	44.0	1	3	338	0.00	30.059 
13:35	67.6	67.6	67.6	42	43.7	2	5	270	0.00	30.059 
13:40	67.9	67.9	67.9	41	43.3	1	3	315	0.00	30.059 
13:45	68.1	68.1	68.1	39	42.2	2	5	315	0.00	30.054 
13:50	68.1	68.1	68.1	40	42.9	2	4	270	0.00	30.054 
13:55	68.6	68.6	68.6	41	44.0	1	4	270	0.00	30.054 
14:00	68.6	68.6	68.6	40	43.3	2	5	270	0.00	30.041 
14:05	68.8	68.8	68.8	38	42.1	2	5	270	0.00	30.041 
14:10	69.3	69.3	69.3	36	41.2	2	4	270	0.00	30.041 
14:15	69.3	69.3	69.3	35	40.5	3	6	315	0.00	30.037 
14:20	69.3	69.3	69.3	35	40.5	3	8	270	0.00	30.037 
14:25	69.8	69.8	69.8	36	41.6	3	7	270	0.00	30.037 
14:30	69.9	69.9	69.9	36	41.7	3	6	292	0.00	30.032 
14:35	69.9	69.9	69.9	34	40.2	2	5	315	0.00	30.032 
14:40	69.9	69.9	69.9	34	40.2	3	6	270	0.00	30.032 
14:45	70.1	70.1	70.1	35	41.2	3	6	270	0.00	30.020 
14:50	70.1	70.1	70.1	34	40.4	2	6	315	0.00	30.020 
14:55	70.4	70.4	70.4	35	41.4	3	6	315	0.00	30.020 
15:00	70.4	70.4	70.4	35	41.4	3	5	292	0.00	30.008 
15:05	70.3	70.3	70.3	34	40.6	3	6	270	0.00	30.008 
15:10	70.4	70.4	70.4	35	41.4	3	7	270	0.00	30.008 
15:15	70.9	70.9	70.9	33	40.3	2	6	292	0.00	29.994 
15:20	70.9	70.9	70.9	33	40.3	2	5	270	0.00	29.994 
15:25	71.3	71.3	71.3	33	40.7	3	6	270	0.00	29.994 
15:30	71.1	71.1	71.1	32	39.7	2	5	270	0.00	29.990 
15:35	71.1	71.1	71.1	33	40.5	1	3	315	0.00	29.990 
15:40	71.5	71.5	71.5	31	39.3	2	6	270	0.00	29.990 
15:45	71.8	71.8	71.8	29	37.8	3	6	248	0.00	29.982 
15:50	71.8	71.8	71.8	30	38.7	2	5	338	0.00	29.982 
15:55	72.0	72.0	72.0	29	38.0	1	4	338	0.00	29.982 
16:00	72.3	72.3	72.3	27	36.4	3	6	270	0.00	29.974 
16:05	72.5	72.5	72.5	28	37.5	2	4	270	0.00	29.974 
16:10	72.5	72.5	72.5	27	36.6	3	5	270	0.00	29.974 
16:15	72.5	72.5	72.5	28	37.5	3	9	270	0.00	29.973 
16:20	72.3	72.3	72.3	27	36.4	2	5	338	0.00	29.973 
16:25	72.5	72.5	72.5	26	35.7	3	6	338	0.00	29.973 
16:30	72.5	72.5	72.5	27	36.6	3	6	270	0.00	29.968 
16:35	72.7	72.7	72.7	27	36.8	3	7	270	0.00	29.968 
16:40	72.5	72.5	72.5	27	36.6	2	6	315	0.00	29.968 
16:45	72.7	72.7	72.7	26	35.8	2	6	292	0.00	29.960 
16:50	72.8	72.8	72.8	26	35.9	3	7	292	0.00	29.960 
16:55	72.8	72.8	72.8	27	36.9	2	6	270	0.00	29.960 
17:00	72.8	72.8	72.8	26	35.9	4	7	270	0.00	29.961 
17:05	72.8	72.8	72.8	27	36.9	2	6	270	0.00	29.961 
17:10	72.8	72.8	72.8	26	35.9	3	6	270	0.00	29.961 
17:15	72.8	72.8	72.8	26	35.9	3	5	270	0.00	29.957 
17:20	72.8	72.8	72.8	26	35.9	1	4	270	0.00	29.957 
17:25	72.7	72.7	72.7	26	35.8	3	8	292	0.00	29.957 
17:30	72.7	72.7	72.7	26	35.8	2	5	270	0.00	29.957 
17:35	72.7	72.7	72.7	27	36.8	3	6	270	0.00	29.957 
17:40	72.7	72.7	72.7	27	36.8	3	9	270	0.00	29.957 
17:45	72.5	72.5	72.5	28	37.5	2	5	292	0.00	29.957 
17:50	72.5	72.5	72.5	27	36.6	2	4	270	0.00	29.957 
17:55	72.3	72.3	72.3	27	36.4	3	6	270	0.00	29.957 
18:00	72.3	72.3	72.3	27	36.4	3	7	270	0.00	29.954 
18:05	72.1	72.1	72.1	28	37.2	2	5	270	0.00	29.954 
18:10	72.1	72.1	72.1	27	36.3	3	6	270	0.00	29.954 
18:15	72.3	72.3	72.3	28	37.4	2	4	315	0.00	29.950 
18:20	72.1	72.1	72.1	27	36.3	3	5	270	0.00	29.950 
18:25	72.0	72.0	72.0	28	37.1	2	6	315	0.00	29.950 
18:30	71.8	71.8	71.8	28	36.9	2	6	270	0.00	29.952 
18:35	71.8	71.8	71.8	28	36.9	1	4	292	0.00	29.952 
18:40	71.6	71.6	71.6	29	37.6	1	3	292	0.00	29.952 
18:45	71.1	71.1	71.1	29	37.2	1	5	270	0.00	29.946 
18:50	70.9	70.9	70.9	30	37.9	1	2	270	0.00	29.946 
18:55	70.6	70.6	70.6	30	37.6	1	3	270	0.00	29.946 
19:00	70.3	70.3	70.3	31	38.2	1	3	270	0.00	29.944 
19:05	69.9	69.9	69.9	31	37.9	1	2	270	0.00	29.944 
19:10	69.6	69.6	69.6	31	37.6	1	2	292	0.00	29.944 
19:15	69.3	69.3	69.3	32	38.2	0	2	292	0.00	29.948 
19:20	69.1	69.1	69.1	32	38.0	1	2	292	0.00	29.948 
19:25	68.8	68.8	68.8	33	38.5	1	2	292	0.00	29.948 
19:30	68.8	68.8	68.8	33	38.5	1	3	292	0.00	29.943 
19:35	68.6	68.6	68.6	33	38.3	1	3	292	0.00	29.943 
19:40	68.6	68.6	68.6	33	38.3	0	2	292	0.00	29.943 
19:45	68.4	68.4	68.4	34	38.9	0	2	292	0.00	29.935 
19:50	68.1	68.1	68.1	34	38.7	0	1	292	0.00	29.935 
19:55	67.8	67.8	67.8	35	39.1	0	1	292	0.00	29.935 
20:00	67.4	67.4	67.4	36	39.5	0	1	292	0.00	29.935 
20:05	67.1	67.1	67.1	36	39.2	0	0	---	0.00	29.935 
20:10	66.6	66.6	66.6	37	39.5	0	0	---	0.00	29.935 
20:15	66.1	66.1	66.1	38	39.7	0	0	---	0.00	29.929 
20:20	65.6	65.6	65.6	39	40.0	0	1	292	0.00	29.929 
20:25	65.3	65.3	65.3	39	39.7	0	1	292	0.00	29.929 
20:30	65.2	65.2	65.2	39	39.6	0	1	292	0.00	29.925 
20:35	65.2	65.2	65.2	39	39.6	0	1	292	0.00	29.925 
20:40	65.2	65.2	65.2	40	40.3	0	1	292	0.00	29.925 
20:45	65.0	65.0	65.0	40	40.1	0	1	292	0.00	29.924 
20:50	64.8	64.8	64.8	40	39.9	0	1	292	0.00	29.924 
20:55	64.5	64.5	64.5	41	40.3	0	1	292	0.00	29.924 
21:00	64.3	64.3	64.3	41	40.1	0	1	292	0.00	29.929 
21:05	64.0	64.0	64.0	42	40.4	0	1	292	0.00	29.929 
21:10	63.9	63.9	63.9	42	40.4	0	0	---	0.00	29.929 
21:15	63.7	63.7	63.7	43	40.8	0	1	292	0.00	29.920 
21:20	63.7	63.7	63.7	42	40.2	0	1	292	0.00	29.920 
21:25	63.5	63.5	63.5	43	40.6	0	0	---	0.00	29.920 
21:30	63.4	63.4	63.4	43	40.5	0	0	---	0.00	29.920 
21:35	63.1	63.1	63.1	44	40.8	0	0	---	0.00	29.920 
21:40	62.7	62.7	62.7	45	41.0	0	0	---	0.00	29.920 
21:45	62.4	62.4	62.4	45	40.8	0	0	---	0.00	29.915 
21:50	62.1	62.1	62.1	45	40.5	0	0	---	0.00	29.915 
21:55	62.0	62.0	62.0	46	41.0	0	0	---	0.00	29.915 
22:00	62.0	62.0	62.0	46	41.0	0	0	---	0.00	29.913 
22:05	61.6	61.6	61.6	46	40.6	0	0	---	0.00	29.913 
22:10	61.5	61.5	61.5	47	41.1	0	1	292	0.00	29.913 
22:15	61.3	61.3	61.3	47	40.9	0	0	---	0.00	29.907 
22:20	61.3	61.3	61.3	47	40.9	0	0	---	0.00	29.907 
22:25	61.3	61.3	61.3	47	40.9	0	1	292	0.00	29.907 
22:30	61.3	61.3	61.3	47	40.9	0	1	292	0.00	29.901 
22:35	61.3	61.3	61.3	47	40.9	0	1	292	0.00	29.901 
22:40	61.3	61.3	61.3	47	40.9	0	1	292	0.00	29.901 
22:45	61.5	61.5	61.5	47	41.1	0	1	292	0.00	29.896 
22:50	61.6	61.6	61.6	46	40.6	0	1	292	0.00	29.896 
22:55	61.8	61.8	61.8	47	41.4	0	2	292	0.00	29.896 
23:00	62.0	62.0	62.0	47	41.5	0	2	292	0.00	29.892 
23:05	62.1	62.1	62.1	47	41.6	0	3	292	0.00	29.892 
23:10	62.3	62.3	62.3	47	41.8	0	2	292	0.00	29.892 
23:15	62.4	62.4	62.4	47	41.9	1	3	292	0.00	29.891 
23:20	62.4	62.4	62.4	47	41.9	0	2	292	0.00	29.891 
23:25	62.4	62.4	62.4	48	42.4	1	3	292	0.00	29.891 
23:30	62.4	62.4	62.4	48	42.4	1	3	292	0.00	29.889 
23:35	62.4	62.4	62.4	48	42.4	0	2	292	0.00	29.889 
23:40	62.4	62.4	62.4	49	43.0	1	2	292	0.00	29.889 
23:45	62.4	62.4	62.4	49	43.0	1	2	248	0.00	29.887 
23:50	62.4	62.4	62.4	50	43.5	1	3	248	0.00	29.887 
23:55	62.7	62.7	62.7	50	43.8	2	5	270	0.00	29.887 

CoCoRaHS
IN-AL-39
A2 Web Hosting
Creative Commons License
GoDaddy
search engine by freefind advanced

loaded 2018-11-17 00:36:00 • last modified 2010-11-18 10:43:29
Privacy PolicyDisclaimer
• wx.awcolley.com is powered by PmWiki v.2002016 •
• all content (unless otherwise noted) © 2018 A W Colley